Time;durP1;ratioP1;P1;durP2;ratioP2;P2;SDS_P1;SDS_P2;PMS_P1;PMS_P2;Temp;Humidity;BMP_temperature;BMP_pressure;BME280_temperature;BME280_humidity;BME280_pressure;Samples;Min_cycle;Max_cycle;Signal;HPM_P1;HPM_P2
2021/12/24 00:00:46;;;;;;;90.78;46.42;;;5.90;99.90;;;;;;4939661;29;20065;-82
2021/12/24 00:03:13;;;;;;;100.25;44.30;;;5.90;99.90;;;;;;4956205;28;20039;-81
2021/12/24 00:05:39;;;;;;;108.72;51.20;;;6.00;99.90;;;;;;4956050;28;20467;-80
2021/12/24 00:08:05;;;;;;;92.10;45.55;;;6.00;99.90;;;;;;4940123;29;20043;-83
2021/12/24 00:10:32;;;;;;;106.38;48.15;;;6.00;99.90;;;;;;4940516;29;20039;-81
2021/12/24 00:13:03;;;;;;;97.22;44.15;;;6.00;99.90;;;;;;4940670;29;20496;-82
2021/12/24 00:15:50;;;;;;;95.40;45.95;;;6.00;99.90;;;;;;4957418;29;20086;-82
2021/12/24 00:37:20;;;;;;;87.00;42.17;;;6.30;99.90;;;;;;4953506;28;20050;-83
2021/12/24 00:39:58;;;;;;;89.13;41.70;;;6.30;99.90;;;;;;4954068;28;20039;-81
2021/12/24 00:42:24;;;;;;;83.57;41.08;;;6.30;99.90;;;;;;4953640;28;20171;-82
2021/12/24 00:44:49;;;;;;;83.45;39.88;;;6.30;99.90;;;;;;4953875;29;20546;-82
2021/12/24 00:47:15;;;;;;;85.43;42.85;;;6.40;99.90;;;;;;4938004;28;20123;-82
2021/12/24 00:49:42;;;;;;;92.13;46.03;;;6.40;99.90;;;;;;4953525;28;20035;-82
2021/12/24 00:52:33;;;;;;;110.72;48.63;;;6.40;99.90;;;;;;4955530;28;20118;-81
2021/12/24 00:55:09;;;;;;;110.05;48.05;;;6.40;99.90;;;;;;4938171;29;20093;-81
2021/12/24 00:57:41;;;;;;;89.28;43.40;;;6.40;99.90;;;;;;4955174;28;20035;-81
2021/12/24 01:00:13;;;;;;;66.85;33.63;;;6.50;99.90;;;;;;4954269;29;20050;-82
2021/12/24 01:02:39;;;;;;;94.20;43.63;;;6.50;99.90;;;;;;4955129;29;20464;-81
2021/12/24 01:05:05;;;;;;;90.28;41.28;;;6.50;99.90;;;;;;4954938;28;20042;-81
2021/12/24 01:07:31;;;;;;;89.97;41.22;;;6.50;99.90;;;;;;4954241;29;20050;-81
2021/12/24 01:09:57;;;;;;;75.72;37.10;;;6.50;99.90;;;;;;4954730;28;20039;-81
2021/12/24 01:12:24;;;;;;;76.53;34.50;;;6.50;99.90;;;;;;4953619;29;20094;-81
2021/12/24 01:14:50;;;;;;;93.75;43.63;;;6.60;99.90;;;;;;4954918;29;20356;-81
2021/12/24 01:17:30;;;;;;;76.18;36.47;;;6.60;99.90;;;;;;4955242;28;20500;-81
2021/12/24 01:20:01;;;;;;;78.97;39.50;;;6.60;99.90;;;;;;4955079;29;20054;-81
2021/12/24 01:25:09;;;;;;;72.57;35.03;;;6.60;99.90;;;;;;4955304;28;20049;-81
2021/12/24 01:38:33;;;;;;;67.53;32.58;;;6.60;99.90;;;;;;4959721;28;20039;-81
2021/12/24 01:43:25;;;;;;;41.38;24.27;;;6.70;99.90;;;;;;4967886;28;20110;-82
2021/12/24 01:45:54;;;;;;;50.60;27.38;;;6.70;99.90;;;;;;4967020;28;20039;-82
2021/12/24 01:48:20;;;;;;;38.45;21.08;;;6.70;99.90;;;;;;4965896;28;20220;-82
2021/12/24 01:50:47;;;;;;;54.20;25.50;;;6.70;99.90;;;;;;4961748;28;20035;-81
2021/12/24 01:53:18;;;;;;;35.88;20.45;;;6.80;99.90;;;;;;4962767;28;20063;-81
2021/12/24 01:55:47;;;;;;;44.17;22.27;;;6.80;99.90;;;;;;4957739;28;20043;-81
2021/12/24 01:58:13;;;;;;;40.67;21.42;;;6.90;99.90;;;;;;4958766;29;20039;-82
2021/12/24 02:00:43;;;;;;;39.03;20.90;;;6.90;99.90;;;;;;4958195;28;20041;-81
2021/12/24 02:03:11;;;;;;;33.22;19.75;;;6.90;99.90;;;;;;4941959;29;20085;-81
2021/12/24 02:05:38;;;;;;;28.00;16.15;;;6.90;99.90;;;;;;4942974;29;20115;-82
2021/12/24 02:08:04;;;;;;;27.20;15.45;;;6.90;99.90;;;;;;4956675;28;20039;-82
2021/12/24 02:10:30;;;;;;;26.77;16.48;;;7.00;99.90;;;;;;4959004;28;20118;-82
2021/12/24 02:12:57;;;;;;;26.25;16.15;;;6.90;99.90;;;;;;4942652;28;20090;-82
2021/12/24 02:15:40;;;;;;;31.23;16.77;;;7.00;99.90;;;;;;4958710;29;20090;-82
2021/12/24 02:18:37;;;;;;;25.63;14.23;;;7.00;99.90;;;;;;4958559;29;20443;-81
2021/12/24 02:29:16;;;;;;;21.45;13.95;;;7.10;99.90;;;;;;4967375;28;20039;-80
2021/12/24 02:31:43;;;;;;;23.30;13.05;;;7.20;99.90;;;;;;4948859;28;20038;-80
2021/12/24 02:34:09;;;;;;;29.70;16.38;;;7.20;99.90;;;;;;4966385;28;20039;-80
2021/12/24 02:36:34;;;;;;;22.13;14.35;;;7.20;99.90;;;;;;4948041;29;20058;-80
2021/12/24 02:39:01;;;;;;;26.88;15.63;;;7.20;99.90;;;;;;4964545;29;20039;-80
2021/12/24 02:41:26;;;;;;;25.10;14.40;;;7.30;99.90;;;;;;4964479;28;20086;-80
2021/12/24 02:43:52;;;;;;;21.00;13.35;;;7.30;99.90;;;;;;4963291;29;20031;-81
2021/12/24 02:49:17;;;;;;;25.38;15.10;;;7.30;99.90;;;;;;4947066;28;20541;-80
2021/12/24 02:54:27;;;;;;;25.00;12.15;;;7.40;99.90;;;;;;4962584;28;20508;-80
2021/12/24 02:56:58;;;;;;;21.40;11.10;;;7.40;99.90;;;;;;4964530;29;20035;-80
2021/12/24 02:59:26;;;;;;;19.30;12.40;;;7.40;99.90;;;;;;4947460;29;20039;-80
2021/12/24 03:01:54;;;;;;;19.45;11.57;;;7.40;99.90;;;;;;4965160;28;20039;-80
2021/12/24 03:04:19;;;;;;;19.88;11.57;;;7.40;99.90;;;;;;4963861;29;20043;-80
2021/12/24 03:06:49;;;;;;;15.35;9.70;;;7.40;99.90;;;;;;4961764;29;20142;-80
2021/12/24 03:09:16;;;;;;;23.02;13.38;;;7.50;99.90;;;;;;4963589;29;20378;-80
2021/12/24 03:11:43;;;;;;;17.25;10.95;;;7.50;99.90;;;;;;4961042;28;20542;-80
2021/12/24 03:14:10;;;;;;;22.38;12.10;;;7.60;99.90;;;;;;4948386;29;20084;-80
2021/12/24 03:16:37;;;;;;;18.08;10.02;;;7.60;99.90;;;;;;4962453;29;20051;-80
2021/12/24 03:19:03;;;;;;;20.05;11.68;;;7.50;99.90;;;;;;4948450;29;20039;-81
2021/12/24 03:21:36;;;;;;;21.50;11.70;;;7.60;99.90;;;;;;4946850;29;20035;-80
2021/12/24 03:26:39;;;;;;;18.65;10.90;;;7.60;99.90;;;;;;4962604;29;20099;-81
2021/12/24 03:29:06;;;;;;;17.58;10.02;;;7.60;99.90;;;;;;4964657;29;20066;-81
2021/12/24 03:31:33;;;;;;;13.32;8.38;;;7.70;99.90;;;;;;4961635;28;20047;-81
2021/12/24 03:34:00;;;;;;;16.85;10.70;;;7.70;99.90;;;;;;4948418;29;20039;-81
2021/12/24 03:36:29;;;;;;;21.33;12.05;;;7.70;99.90;;;;;;4961388;29;20046;-81
2021/12/24 03:38:55;;;;;;;22.40;13.02;;;7.70;99.90;;;;;;4962712;29;20043;-81
2021/12/24 03:41:21;;;;;;;15.93;9.68;;;7.70;99.90;;;;;;4961415;29;20488;-81
2021/12/24 03:43:46;;;;;;;17.98;10.95;;;7.80;99.90;;;;;;4960876;29;20031;-81
2021/12/24 03:46:18;;;;;;;25.88;12.52;;;7.80;99.90;;;;;;4960930;29;20073;-81
2021/12/24 03:48:53;;;;;;;22.38;12.50;;;7.80;99.90;;;;;;4957726;29;20119;-81
2021/12/24 03:56:34;;;;;;;27.33;13.20;;;7.90;99.90;;;;;;4961235;29;20051;-81
2021/12/24 03:59:00;;;;;;;24.10;12.27;;;8.00;99.90;;;;;;4958824;28;20553;-81
2021/12/24 04:01:26;;;;;;;23.00;11.48;;;8.00;99.90;;;;;;4943815;29;20039;-81
2021/12/24 04:03:52;;;;;;;27.10;12.18;;;8.10;99.90;;;;;;4958798;29;20487;-81
2021/12/24 04:06:17;;;;;;;26.40;13.88;;;8.10;99.90;;;;;;4959841;29;20066;-81
2021/12/24 04:08:43;;;;;;;26.88;14.05;;;8.10;99.90;;;;;;4958237;29;20039;-81
2021/12/24 04:11:09;;;;;;;27.48;14.15;;;8.10;99.90;;;;;;4959672;28;20059;-81
2021/12/24 04:13:35;;;;;;;36.83;17.50;;;8.10;99.90;;;;;;4956704;28;20067;-80
2021/12/24 04:16:01;;;;;;;39.97;17.95;;;8.20;99.90;;;;;;4956766;29;20500;-81
2021/12/24 04:26:30;;;;;;;60.38;27.58;;;8.30;99.90;;;;;;4958198;28;20461;-81
2021/12/24 04:28:56;;;;;;;54.00;22.73;;;8.40;99.90;;;;;;4959352;29;20463;-81
2021/12/24 04:31:28;;;;;;;40.20;21.35;;;8.40;99.90;;;;;;4958629;28;20047;-81
2021/12/24 04:33:58;;;;;;;44.25;18.83;;;8.40;99.90;;;;;;4960342;29;20435;-82
2021/12/24 04:52:50;;;;;;;40.33;19.63;;;8.50;99.90;;;;;;4960118;29;20448;-81
2021/12/24 05:03:31;;;;;;;36.60;20.20;;;8.50;99.90;;;;;;4957099;28;20069;-82
2021/12/24 05:06:48;;;;;;;39.35;19.13;;;8.50;99.90;;;;;;4946109;28;20035;-82
2021/12/24 05:11:20;;;;;;;40.17;20.88;;;8.50;99.90;;;;;;4963588;28;20499;-82
2021/12/24 05:13:46;;;;;;;46.05;21.00;;;8.50;99.90;;;;;;4962051;29;20035;-81
2021/12/24 05:16:21;;;;;;;42.67;21.23;;;8.50;99.90;;;;;;4961765;28;20125;-81
2021/12/24 05:24:09;;;;;;;35.90;18.85;;;8.60;99.90;;;;;;4964065;29;20051;-82
2021/12/24 05:26:36;;;;;;;35.20;20.67;;;8.60;99.90;;;;;;4945309;29;20396;-81
2021/12/24 05:29:03;;;;;;;38.92;20.45;;;8.60;99.90;;;;;;4964540;29;20091;-81
2021/12/24 05:31:29;;;;;;;34.35;19.77;;;8.60;99.90;;;;;;4961764;29;20091;-81
2021/12/24 05:33:55;;;;;;;34.70;19.40;;;8.60;99.90;;;;;;4946870;29;20048;-81
2021/12/24 05:36:21;;;;;;;33.78;19.25;;;8.60;99.90;;;;;;4944777;29;20039;-81
2021/12/24 05:38:46;;;;;;;36.67;18.13;;;8.60;99.90;;;;;;4944772;28;20772;-81
2021/12/24 05:41:13;;;;;;;40.63;20.38;;;8.60;99.90;;;;;;4961011;28;20042;-81
2021/12/24 05:43:39;;;;;;;33.80;19.50;;;8.60;99.90;;;;;;4961864;29;20036;-81
2021/12/24 05:46:05;;;;;;;34.97;20.30;;;8.50;99.90;;;;;;4960335;29;20035;-81
2021/12/24 05:48:30;;;;;;;39.72;22.60;;;8.60;99.90;;;;;;4960686;29;20062;-81
2021/12/24 05:50:57;;;;;;;40.30;20.63;;;8.60;99.90;;;;;;4960212;28;20043;-81
2021/12/24 05:53:24;;;;;;;41.83;22.73;;;8.60;99.90;;;;;;4960999;29;20413;-82
2021/12/24 05:55:50;;;;;;;40.28;21.85;;;8.60;99.90;;;;;;4944572;28;20058;-81
2021/12/24 05:58:16;;;;;;;41.60;20.13;;;8.60;99.90;;;;;;4961773;29;20047;-81
2021/12/24 06:00:43;;;;;;;35.80;20.35;;;8.60;99.90;;;;;;4946894;29;20090;-81
2021/12/24 06:03:10;;;;;;;36.20;20.85;;;8.50;99.90;;;;;;4946079;29;20043;-81
2021/12/24 06:05:37;;;;;;;38.13;21.42;;;8.60;99.90;;;;;;4962953;29;20134;-82
2021/12/24 06:08:04;;;;;;;41.67;20.92;;;8.60;99.90;;;;;;4960883;29;20077;-81
2021/12/24 06:10:31;;;;;;;40.97;22.33;;;8.60;99.90;;;;;;4962128;28;20090;-81
2021/12/24 06:12:57;;;;;;;35.92;20.17;;;8.60;99.90;;;;;;4959245;28;20432;-81
2021/12/24 06:15:25;;;;;;;36.60;19.65;;;8.60;99.90;;;;;;4960780;28;20046;-81
2021/12/24 06:17:54;;;;;;;32.42;17.75;;;8.50;99.90;;;;;;4959328;28;20039;-82
2021/12/24 06:20:21;;;;;;;34.72;19.38;;;8.50;99.90;;;;;;4945293;29;20061;-82
2021/12/24 06:22:47;;;;;;;32.42;16.80;;;8.50;99.90;;;;;;4959929;28;20055;-81
2021/12/24 06:25:14;;;;;;;33.53;17.27;;;8.50;99.90;;;;;;4960420;28;20075;-82
2021/12/24 06:27:40;;;;;;;29.70;17.00;;;8.50;99.90;;;;;;4959090;29;20051;-82
2021/12/24 06:30:07;;;;;;;32.97;16.55;;;8.50;99.90;;;;;;4943947;29;20123;-83
2021/12/24 06:32:33;;;;;;;31.73;15.82;;;8.50;99.90;;;;;;4960343;29;20058;-81
2021/12/24 06:34:59;;;;;;;30.90;16.85;;;8.50;99.90;;;;;;4960143;28;20043;-82
2021/12/24 06:37:25;;;;;;;32.22;17.17;;;8.50;99.90;;;;;;4960301;29;20038;-82
2021/12/24 06:39:51;;;;;;;28.80;14.75;;;8.50;99.90;;;;;;4959291;28;20039;-81
2021/12/24 06:42:17;;;;;;;29.58;14.43;;;8.50;99.90;;;;;;4960083;29;20070;-82
2021/12/24 06:44:42;;;;;;;29.20;14.73;;;8.50;99.90;;;;;;4960315;29;20087;-81
2021/12/24 06:47:08;;;;;;;29.23;12.77;;;8.50;99.90;;;;;;4961062;28;20042;-82
2021/12/24 06:49:34;;;;;;;29.98;15.60;;;8.50;99.90;;;;;;4960399;29;20035;-82
2021/12/24 06:52:00;;;;;;;29.98;14.63;;;8.50;99.90;;;;;;4962274;28;20050;-82
2021/12/24 06:54:26;;;;;;;25.27;13.57;;;8.40;99.90;;;;;;4944254;29;20101;-81
2021/12/24 06:56:53;;;;;;;27.27;13.05;;;8.50;99.90;;;;;;4962774;29;20492;-82
2021/12/24 06:59:19;;;;;;;31.05;13.75;;;8.50;99.90;;;;;;4960611;29;20142;-82
2021/12/24 07:01:44;;;;;;;27.02;14.10;;;8.40;99.90;;;;;;4946378;29;20044;-82
2021/12/24 07:04:10;;;;;;;25.20;14.07;;;8.40;99.90;;;;;;4960817;29;20480;-82
2021/12/24 07:06:39;;;;;;;33.50;14.40;;;8.50;99.90;;;;;;4963490;28;20036;-82
2021/12/24 07:09:04;;;;;;;26.10;12.73;;;8.40;99.90;;;;;;4960896;29;20053;-82
2021/12/24 07:11:30;;;;;;;31.60;12.60;;;8.40;99.90;;;;;;4947179;29;20102;-82
2021/12/24 07:13:55;;;;;;;24.73;12.73;;;8.40;99.90;;;;;;4961463;29;20063;-83
2021/12/24 07:16:21;;;;;;;28.85;12.80;;;8.40;99.90;;;;;;4944887;29;20039;-82
2021/12/24 07:18:47;;;;;;;22.38;10.32;;;8.40;99.90;;;;;;4960060;29;20051;-82
2021/12/24 07:21:13;;;;;;;25.35;10.82;;;8.30;99.90;;;;;;4959473;28;20039;-82
2021/12/24 07:23:39;;;;;;;20.38;9.93;;;8.30;99.90;;;;;;4960241;29;20045;-82
2021/12/24 07:26:04;;;;;;;22.15;11.50;;;8.30;99.90;;;;;;4959099;28;20043;-79
2021/12/24 07:28:30;;;;;;;21.83;11.38;;;8.30;99.90;;;;;;4954968;28;20047;-80
2021/12/24 07:30:56;;;;;;;26.05;11.10;;;8.30;99.90;;;;;;4955365;28;20047;-80
2021/12/24 07:33:22;;;;;;;15.57;9.50;;;8.30;99.90;;;;;;4940469;29;20496;-79
2021/12/24 07:35:47;;;;;;;26.98;11.13;;;8.30;99.90;;;;;;4955971;29;20031;-80
2021/12/24 07:38:13;;;;;;;27.10;11.20;;;8.30;99.90;;;;;;4960631;29;20099;-80
2021/12/24 07:40:44;;;;;;;22.23;10.70;;;8.30;99.90;;;;;;4960120;28;20042;-81
2021/12/24 07:43:09;;;;;;;21.88;9.68;;;8.30;99.90;;;;;;4962617;29;20467;-81
2021/12/24 07:45:37;;;;;;;19.52;9.45;;;8.30;99.90;;;;;;4959070;28;20087;-81
2021/12/24 07:48:27;;;;;;;17.58;9.60;;;8.30;99.90;;;;;;4961137;29;20289;-80
2021/12/24 07:53:17;;;;;;;23.27;9.30;;;8.30;99.90;;;;;;4961343;28;20050;-80
2021/12/24 07:55:43;;;;;;;21.05;9.55;;;8.30;99.90;;;;;;4957494;29;20039;-80
2021/12/24 07:58:10;;;;;;;22.50;10.68;;;8.20;99.90;;;;;;4958708;29;20031;-81
2021/12/24 08:00:38;;;;;;;19.27;8.10;;;8.30;99.90;;;;;;4943955;28;20039;-81
2021/12/24 08:03:04;;;;;;;24.70;10.05;;;8.30;99.90;;;;;;4958560;29;20408;-81
2021/12/24 08:05:35;;;;;;;18.23;9.43;;;8.30;99.90;;;;;;4960032;28;20135;-81
2021/12/24 08:08:02;;;;;;;16.92;7.95;;;8.30;99.90;;;;;;4958990;29;20082;-80
2021/12/24 08:10:30;;;;;;;16.92;9.02;;;8.30;99.90;;;;;;4940961;29;20135;-80
2021/12/24 08:12:55;;;;;;;17.58;8.60;;;8.30;99.90;;;;;;4944688;29;20071;-81
2021/12/24 08:15:22;;;;;;;19.95;8.15;;;8.20;99.90;;;;;;4959671;28;20051;-81
2021/12/24 08:17:47;;;;;;;14.18;7.57;;;8.20;99.90;;;;;;4958048;28;20045;-81
2021/12/24 08:20:15;;;;;;;14.30;6.75;;;8.20;99.90;;;;;;4959973;28;20102;-81
2021/12/24 08:22:41;;;;;;;14.25;8.35;;;8.20;99.90;;;;;;4941540;29;20389;-81
2021/12/24 08:25:09;;;;;;;17.98;8.38;;;8.20;99.90;;;;;;4959624;28;20054;-81
2021/12/24 08:27:35;;;;;;;20.67;8.68;;;8.20;99.90;;;;;;4940979;29;20043;-81
2021/12/24 08:30:03;;;;;;;22.65;9.05;;;8.20;99.90;;;;;;4958857;29;20036;-81
2021/12/24 08:32:29;;;;;;;18.83;9.27;;;8.20;99.90;;;;;;4955866;29;20051;-80
2021/12/24 08:34:55;;;;;;;24.73;9.10;;;8.20;99.90;;;;;;4957609;29;20317;-81
2021/12/24 08:37:22;;;;;;;21.13;8.40;;;8.10;99.90;;;;;;4956781;29;20134;-81
2021/12/24 08:39:47;;;;;;;19.67;8.60;;;8.10;99.90;;;;;;4945599;29;20448;-81
2021/12/24 08:42:13;;;;;;;22.00;9.48;;;8.10;99.90;;;;;;4965507;28;20067;-81
2021/12/24 08:44:38;;;;;;;21.65;9.75;;;8.10;99.90;;;;;;4964331;28;20051;-81
2021/12/24 08:47:04;;;;;;;24.10;9.25;;;8.10;99.90;;;;;;4964253;28;20039;-80
2021/12/24 08:49:31;;;;;;;22.45;8.43;;;8.10;99.90;;;;;;4960073;29;20062;-81
2021/12/24 08:51:57;;;;;;;25.50;9.77;;;8.10;99.90;;;;;;4966312;28;20365;-81
2021/12/24 08:54:24;;;;;;;25.77;9.57;;;8.10;99.90;;;;;;4966045;29;20090;-83
2021/12/24 08:56:50;;;;;;;18.83;7.38;;;8.00;99.90;;;;;;4953832;29;20039;-83
2021/12/24 08:59:16;;;;;;;25.50;8.02;;;8.10;99.90;;;;;;4956111;28;20392;-82
2021/12/24 09:01:42;;;;;;;19.73;7.72;;;8.10;99.90;;;;;;4957635;28;20066;-82
2021/12/24 09:04:09;;;;;;;16.95;9.02;;;8.10;99.90;;;;;;4940573;29;20035;-83
2021/12/24 09:06:36;;;;;;;17.35;7.68;;;8.10;99.90;;;;;;4940475;29;20074;-81
2021/12/24 09:09:02;;;;;;;18.73;8.07;;;8.00;99.90;;;;;;4957975;29;20126;-81
2021/12/24 09:11:28;;;;;;;16.58;7.53;;;8.00;99.90;;;;;;4956964;28;20047;-82
2021/12/24 09:13:53;;;;;;;18.80;8.68;;;8.10;99.90;;;;;;4958861;29;20054;-82
2021/12/24 09:16:19;;;;;;;18.35;7.93;;;8.00;99.90;;;;;;4959737;29;20043;-83
2021/12/24 09:18:45;;;;;;;19.75;8.23;;;8.00;99.90;;;;;;4957375;29;20202;-83
2021/12/24 09:21:16;;;;;;;16.15;7.60;;;8.00;99.90;;;;;;4943576;29;20443;-82
2021/12/24 09:23:47;;;;;;;17.55;7.57;;;8.00;99.90;;;;;;4959817;29;20050;-83
2021/12/24 09:26:13;;;;;;;15.70;6.15;;;8.00;99.90;;;;;;4957728;29;20039;-83
2021/12/24 09:28:39;;;;;;;14.68;6.38;;;8.00;99.90;;;;;;4960187;29;20039;-83
2021/12/24 09:31:04;;;;;;;13.32;6.07;;;8.00;99.90;;;;;;4941855;29;20086;-83
2021/12/24 09:33:30;;;;;;;13.63;5.53;;;8.00;99.90;;;;;;4957399;29;20039;-83
2021/12/24 09:35:55;;;;;;;13.60;7.00;;;8.10;99.90;;;;;;4957865;28;20412;-81
2021/12/24 09:38:21;;;;;;;17.58;6.90;;;8.10;99.90;;;;;;4957076;28;20062;-82
2021/12/24 09:40:47;;;;;;;18.45;7.68;;;8.10;99.90;;;;;;4955829;28;20043;-83
2021/12/24 09:43:13;;;;;;;12.27;5.63;;;8.10;99.90;;;;;;4939554;29;20062;-82
2021/12/24 09:45:38;;;;;;;16.02;6.70;;;8.10;99.90;;;;;;4955437;29;20415;-83
2021/12/24 09:48:04;;;;;;;16.17;6.60;;;8.10;99.90;;;;;;4957200;28;20120;-83
2021/12/24 09:50:30;;;;;;;17.48;7.55;;;8.10;99.90;;;;;;4956846;28;20058;-82
2021/12/24 09:52:56;;;;;;;16.27;6.70;;;8.10;99.90;;;;;;4957275;28;20062;-83
2021/12/24 09:55:26;;;;;;;17.02;6.43;;;8.10;99.90;;;;;;4956272;28;20496;-83
2021/12/24 09:57:52;;;;;;;18.90;7.47;;;8.10;99.90;;;;;;4955336;29;20118;-83
2021/12/24 10:00:21;;;;;;;14.65;7.00;;;8.20;99.90;;;;;;4955902;28;20530;-83
2021/12/24 10:02:51;;;;;;;18.05;7.35;;;8.20;99.90;;;;;;4939928;29;20122;-83
2021/12/24 10:05:26;;;;;;;17.85;7.03;;;8.20;99.90;;;;;;4955860;29;20043;-81
2021/12/24 10:08:12;;;;;;;19.27;6.35;;;8.10;99.90;;;;;;4939586;29;20043;-83
2021/12/24 10:10:42;;;;;;;11.55;4.95;;;8.20;99.90;;;;;;4936370;29;20542;-83
2021/12/24 10:13:34;;;;;;;14.10;5.15;;;8.20;99.90;;;;;;4955293;29;20043;-83
2021/12/24 10:16:22;;;;;;;11.70;5.05;;;8.20;99.90;;;;;;4954951;29;20142;-81
2021/12/24 10:18:53;;;;;;;9.23;3.97;;;8.20;99.90;;;;;;4942412;29;20042;-82
2021/12/24 10:21:22;;;;;;;11.68;4.95;;;8.20;99.90;;;;;;4955884;29;20043;-82
2021/12/24 10:23:54;;;;;;;11.82;3.83;;;8.10;99.90;;;;;;4956038;28;20169;-83
2021/12/24 10:26:22;;;;;;;8.90;3.72;;;8.10;99.90;;;;;;4956056;29;20498;-82
2021/12/24 10:28:54;;;;;;;10.73;3.72;;;8.10;99.90;;;;;;4940329;28;20047;-82
2021/12/24 10:31:23;;;;;;;9.27;3.67;;;8.10;99.90;;;;;;4956488;28;20047;-82
2021/12/24 10:34:23;;;;;;;5.80;2.42;;;8.10;99.90;;;;;;4939245;29;20046;-84
2021/12/24 10:37:03;;;;;;;2.42;1.88;;;8.00;99.90;;;;;;4939063;28;20051;-83
2021/12/24 10:39:37;;;;;;;3.45;1.40;;;7.50;99.90;;;;;;4956898;28;20389;-82
2021/12/24 10:42:07;;;;;;;2.53;1.42;;;7.10;99.90;;;;;;4940577;29;20043;-82
2021/12/24 10:44:35;;;;;;;3.65;1.73;;;6.90;99.90;;;;;;4959377;29;20126;-82
2021/12/24 10:47:12;;;;;;;1.90;0.80;;;6.60;99.90;;;;;;4956532;29;20455;-82
2021/12/24 10:55:27;;;;;;;7.47;5.28;;;6.10;99.90;;;;;;4958797;29;20514;-83
2021/12/24 10:57:54;;;;;;;5.93;4.00;;;6.00;99.90;;;;;;4941302;29;20035;-82
2021/12/24 11:00:26;;;;;;;5.50;3.47;;;6.00;99.90;;;;;;4940843;29;20050;-82
2021/12/24 11:03:04;;;;;;;9.25;5.25;;;6.00;99.90;;;;;;4956036;28;20534;-82
2021/12/24 11:05:31;;;;;;;7.20;4.18;;;5.90;99.90;;;;;;4957235;29;20074;-82
2021/12/24 11:08:04;;;;;;;7.22;4.10;;;5.90;99.90;;;;;;4956910;29;20039;-83
2021/12/24 11:10:33;;;;;;;7.38;4.75;;;5.90;99.90;;;;;;4940385;29;20106;-83
2021/12/24 11:13:08;;;;;;;9.98;6.75;;;5.80;99.90;;;;;;4956371;28;20134;-82
2021/12/24 11:15:37;;;;;;;5.47;4.72;;;5.80;99.90;;;;;;4955695;29;20134;-82
2021/12/24 11:18:22;;;;;;;7.93;4.75;;;5.80;99.90;;;;;;4955557;29;20094;-82
2021/12/24 11:21:00;;;;;;;13.77;10.27;;;5.80;99.90;;;;;;4940229;29;20130;-82
2021/12/24 11:23:28;;;;;;;9.73;7.07;;;5.70;99.90;;;;;;4955375;29;20492;-83
2021/12/24 11:26:03;;;;;;;10.27;5.68;;;5.70;99.90;;;;;;4957666;29;20035;-84
2021/12/24 11:28:31;;;;;;;9.02;4.43;;;5.80;99.90;;;;;;4956942;29;20047;-83
2021/12/24 11:31:10;;;;;;;9.50;5.22;;;5.80;99.90;;;;;;4956318;29;20059;-83
2021/12/24 11:33:38;;;;;;;9.35;5.32;;;5.80;99.90;;;;;;4939981;29;20039;-83
2021/12/24 11:36:06;;;;;;;6.78;4.53;;;5.80;99.90;;;;;;4938465;29;20547;-83
2021/12/24 11:38:36;;;;;;;8.43;5.65;;;5.80;99.90;;;;;;4955001;29;20126;-84
2021/12/24 11:41:04;;;;;;;8.23;5.13;;;5.80;99.90;;;;;;4956287;28;20035;-83
2021/12/24 11:43:32;;;;;;;5.97;4.03;;;5.80;99.90;;;;;;4928006;29;20488;-82
2021/12/24 11:46:00;;;;;;;10.52;6.25;;;5.80;99.90;;;;;;4932413;29;20046;-83
2021/12/24 11:48:30;;;;;;;7.82;6.20;;;5.90;99.90;;;;;;4958354;28;20043;-82
2021/12/24 11:50:58;;;;;;;28.95;22.77;;;5.90;99.90;;;;;;4939997;29;20408;-82
2021/12/24 11:53:25;;;;;;;8.45;6.38;;;5.90;99.90;;;;;;4940302;29;20043;-83
2021/12/24 11:55:51;;;;;;;15.95;11.05;;;5.90;99.90;;;;;;4938120;29;20051;-83
2021/12/24 11:58:23;;;;;;;94.10;62.63;;;5.90;99.90;;;;;;4954677;28;20046;-82
2021/12/24 12:00:51;;;;;;;39.67;29.10;;;5.90;99.90;;;;;;4937748;29;20147;-82
2021/12/24 12:03:39;;;;;;;12.98;10.25;;;5.90;99.90;;;;;;4954290;28;20118;-83
2021/12/24 12:06:09;;;;;;;10.15;8.77;;;5.90;99.90;;;;;;4954156;29;20468;-83
2021/12/24 12:08:39;;;;;;;7.00;5.55;;;5.90;99.90;;;;;;4953448;29;20365;-83
2021/12/24 12:11:15;;;;;;;10.32;8.55;;;5.80;99.90;;;;;;4954432;28;20050;-82
2021/12/24 12:13:48;;;;;;;11.80;8.70;;;5.80;99.90;;;;;;4952642;28;20046;-83
2021/12/24 12:16:37;;;;;;;10.63;9.50;;;5.90;99.90;;;;;;4952341;29;20039;-83
2021/12/24 12:19:31;;;;;;;10.18;9.18;;;5.90;99.90;;;;;;4937879;28;20050;-82
2021/12/24 12:22:17;;;;;;;12.02;10.77;;;5.90;99.90;;;;;;4939451;29;20122;-82
2021/12/24 12:25:04;;;;;;;8.52;5.85;;;5.90;99.90;;;;;;4956896;28;20074;-81
2021/12/24 12:27:58;;;;;;;8.98;5.47;;;5.90;99.90;;;;;;4941546;28;20061;-82
2021/12/24 12:30:37;;;;;;;7.97;5.43;;;5.90;99.90;;;;;;4954322;28;20444;-83
2021/12/24 12:33:22;;;;;;;6.45;5.80;;;5.90;99.90;;;;;;4940175;29;20055;-82
2021/12/24 12:35:51;;;;;;;9.32;6.18;;;5.90;99.90;;;;;;4940014;29;20062;-82
2021/12/24 12:38:31;;;;;;;8.85;4.68;;;5.80;99.90;;;;;;4940008;29;20031;-82
2021/12/24 12:41:32;;;;;;;7.50;5.25;;;5.80;99.90;;;;;;4956035;29;20090;-82
2021/12/24 12:44:01;;;;;;;7.30;6.05;;;5.80;99.90;;;;;;4956145;28;20083;-82
2021/12/24 12:46:32;;;;;;;8.65;5.28;;;5.80;99.90;;;;;;4940465;29;20126;-82
2021/12/24 12:49:00;;;;;;;7.00;5.32;;;5.80;99.90;;;;;;4942127;29;20043;-82
2021/12/24 12:52:01;;;;;;;12.43;8.80;;;5.80;99.90;;;;;;4955573;28;20043;-82
2021/12/24 12:54:38;;;;;;;10.48;7.30;;;5.80;99.90;;;;;;4939255;28;20040;-82
2021/12/24 12:57:19;;;;;;;11.15;8.63;;;5.80;99.90;;;;;;4959845;29;20035;-82
2021/12/24 13:00:12;;;;;;;14.02;9.60;;;5.80;99.90;;;;;;4944565;29;20406;-81
2021/12/24 13:03:06;;;;;;;18.20;12.18;;;5.80;99.90;;;;;;4943437;29;20039;-82
2021/12/24 13:05:33;;;;;;;8.43;5.88;;;5.80;99.90;;;;;;4948552;29;20392;-83
2021/12/24 13:08:10;;;;;;;7.60;6.32;;;5.80;99.90;;;;;;4956924;29;20043;-83
2021/12/24 13:10:36;;;;;;;10.43;7.38;;;5.80;99.90;;;;;;4939490;29;20043;-80
2021/12/24 13:13:04;;;;;;;56.33;40.10;;;5.80;99.90;;;;;;4956377;29;20399;-80
2021/12/24 13:15:31;;;;;;;11.35;8.75;;;5.80;99.90;;;;;;4955469;29;20047;-80
2021/12/24 13:18:02;;;;;;;20.90;17.75;;;5.80;99.90;;;;;;4939839;29;20039;-81
2021/12/24 13:20:46;;;;;;;7.70;4.75;;;5.80;99.90;;;;;;4940181;29;20063;-82
2021/12/24 13:23:22;;;;;;;6.43;5.30;;;5.80;99.90;;;;;;4955579;28;20042;-82
2021/12/24 13:25:48;;;;;;;7.93;5.97;;;5.80;99.90;;;;;;4955149;28;20050;-81
2021/12/24 13:28:14;;;;;;;4.70;3.80;;;5.80;99.90;;;;;;4942749;29;20042;-82
2021/12/24 13:30:39;;;;;;;3.55;2.22;;;5.80;99.90;;;;;;4959060;29;20070;-81
2021/12/24 13:33:07;;;;;;;4.93;2.95;;;5.80;99.90;;;;;;4957785;28;20049;-81
2021/12/24 13:35:49;;;;;;;6.07;2.80;;;5.80;99.90;;;;;;4959162;28;20046;-81
2021/12/24 13:38:17;;;;;;;5.20;3.72;;;5.80;99.90;;;;;;4958958;28;20134;-81
2021/12/24 13:40:43;;;;;;;3.97;2.92;;;5.80;99.90;;;;;;4958853;28;20035;-81
2021/12/24 13:43:12;;;;;;;5.28;2.67;;;5.80;99.90;;;;;;4943395;29;20468;-82
2021/12/24 13:45:40;;;;;;;4.28;2.22;;;5.80;99.90;;;;;;4959544;29;20519;-81
2021/12/24 13:48:11;;;;;;;3.88;2.15;;;5.80;99.90;;;;;;4960894;28;20035;-81
2021/12/24 13:56:17;;;;;;;3.83;2.45;;;5.70;99.90;;;;;;4957428;28;20078;-81
2021/12/24 13:58:58;;;;;;;4.20;2.38;;;5.80;99.90;;;;;;4943986;29;20066;-81
2021/12/24 14:01:30;;;;;;;6.03;2.10;;;5.70;99.90;;;;;;4964148;29;20063;-81
2021/12/24 14:03:58;;;;;;;2.70;1.58;;;5.70;99.90;;;;;;4964545;29;20054;-80
2021/12/24 14:06:37;;;;;;;3.15;1.90;;;5.70;99.90;;;;;;4941231;29;20046;-81
2021/12/24 14:09:13;;;;;;;2.17;1.10;;;5.70;99.90;;;;;;4941457;29;20046;-81
2021/12/24 14:11:39;;;;;;;3.17;1.67;;;5.60;99.90;;;;;;4957373;28;20043;-81
2021/12/24 14:14:12;;;;;;;2.88;1.48;;;5.60;99.90;;;;;;4956677;29;20047;-81
2021/12/24 14:19:19;;;;;;;3.40;1.83;;;5.50;99.90;;;;;;4955806;28;20079;-82
2021/12/24 14:21:49;;;;;;;3.92;1.85;;;5.60;99.90;;;;;;4939119;29;20040;-81
2021/12/24 14:24:21;;;;;;;3.15;2.17;;;5.50;99.90;;;;;;4956479;28;20122;-82
2021/12/24 14:26:52;;;;;;;6.03;2.08;;;5.50;99.90;;;;;;4956773;28;20046;-81
2021/12/24 14:29:34;;;;;;;3.50;2.13;;;5.50;99.90;;;;;;4941991;29;20047;-81
2021/12/24 14:32:26;;;;;;;3.72;2.55;;;5.50;99.90;;;;;;4958085;28;20047;-82
2021/12/24 14:34:54;;;;;;;4.72;2.63;;;5.50;99.90;;;;;;4942379;29;20055;-82
2021/12/24 14:37:21;;;;;;;4.05;2.03;;;5.50;99.90;;;;;;4956423;28;20043;-83
2021/12/24 14:39:50;;;;;;;3.20;2.35;;;5.50;99.90;;;;;;4959795;29;20369;-82
2021/12/24 14:42:21;;;;;;;3.72;2.33;;;5.50;99.90;;;;;;4958404;29;20503;-82
2021/12/24 14:44:48;;;;;;;4.63;3.40;;;5.50;99.90;;;;;;4958055;29;20392;-82
2021/12/24 14:47:19;;;;;;;5.45;3.38;;;5.50;99.90;;;;;;4957360;28;20093;-82
2021/12/24 14:49:44;;;;;;;5.95;3.05;;;5.50;99.90;;;;;;4957070;29;20050;-83